| time (UTC) | temp C | wind direction | speed KPH | gust KPH | rain 1hr cm | rain 24hr cm | rain mn cm | humidity % | barometer mb |
| 20260506211038 | 18 | 197 | 8.0 | 17.7 | 0.00 | 0.00 | 0.00 | 74 | 1019.2 |
| 20260506210021 | 20 | 201 | 11.3 | 19.3 | 0.00 | 0.00 | 0.00 | 72 | 1019.2 |
| 20260506205016 | 19 | 203 | 4.8 | 9.7 | 0.00 | 0.00 | 0.00 | 73 | 1019.3 |
| 20260506204038 | 19 | 202 | 8.0 | 16.1 | 0.00 | 0.00 | 0.00 | 73 | 1019.3 |
| 20260506203021 | 18 | 204 | 11.3 | 20.9 | 0.00 | 0.00 | 0.00 | 75 | 1019.4 |
| 20260506202016 | 18 | 207 | 12.9 | 19.3 | 0.00 | 0.00 | 0.00 | 76 | 1019.4 |
| 20260506201019 | 18 | 201 | 11.3 | 19.3 | 0.00 | 0.00 | 0.00 | 76 | 1019.5 |
| 20260506200020 | 19 | 194 | 8.0 | 19.3 | 0.00 | 0.00 | 0.00 | 74 | 1019.6 |
| 20260506195016 | 19 | 200 | 8.0 | 19.3 | 0.00 | 0.00 | 0.00 | 75 | 1019.5 |
| 20260506194018 | 19 | 195 | 12.9 | 22.5 | 0.00 | 0.00 | 0.00 | 74 | 1019.6 |
| 20260506193021 | 19 | 198 | 11.3 | 24.1 | 0.00 | 0.00 | 0.00 | 74 | 1019.8 |
| 20260506192016 | 20 | 183 | 4.8 | 14.5 | 0.00 | 0.00 | 0.00 | 73 | 1019.8 |
| 20260506191019 | 19 | 202 | 9.7 | 19.3 | 0.00 | 0.00 | 0.00 | 75 | 1019.8 |
| 20260506190022 | 19 | 190 | 6.4 | 17.7 | 0.00 | 0.00 | 0.00 | 74 | 1019.8 |
| 20260506185017 | 18 | 201 | 9.7 | 19.3 | 0.00 | 0.00 | 0.00 | 76 | 1019.9 |
| 20260506184020 | 18 | 200 | 11.3 | 17.7 | 0.00 | 0.00 | 0.00 | 76 | 1020.0 |
| 20260506183022 | 18 | 178 | 11.3 | 14.5 | 0.00 | 0.00 | 0.00 | 77 | 1020.0 |
| 20260506182038 | 18 | 185 | 11.3 | 16.1 | 0.00 | 0.00 | 0.00 | 76 | 1019.9 |
| 20260506181020 | 18 | 190 | 6.4 | 14.5 | 0.00 | 0.00 | 0.00 | 77 | 1020.0 |
| 20260506180015 | 18 | 161 | 4.8 | 9.7 | 0.00 | 0.00 | 0.00 | 74 | 1019.9 |
| 20260506175018 | 18 | 188 | 3.2 | 9.7 | 0.00 | 0.00 | 0.00 | 73 | 1019.9 |
| 20260506174021 | 18 | 198 | 4.8 | 9.7 | 0.00 | 0.00 | 0.00 | 73 | 1019.8 |
| 20260506173015 | 17 | 27 | 3.2 | 6.4 | 0.00 | 0.00 | 0.00 | 75 | 1020.0 |
| 20260506172018 | 17 | 15 | 3.2 | 6.4 | 0.00 | 0.00 | 0.00 | 76 | 1020.0 |
| 20260506171022 | 17 | 16 | 3.2 | 6.4 | 0.00 | 0.00 | 0.00 | 76 | 1020.1 |
| 20260506170016 | 17 | 59 | 1.6 | 4.8 | 0.00 | 0.00 | 0.00 | 74 | 1020.1 |
| 20260506165039 | 16 | 19 | 1.6 | 4.8 | 0.00 | 0.00 | 0.00 | 75 | 1020.1 |
| 20260506164042 | 16 | 167 | 3.2 | 8.0 | 0.00 | 0.00 | 0.00 | 75 | 1020.1 |
| 20260506163017 | 16 | 145 | 1.6 | 6.4 | 0.00 | 0.00 | 0.00 | 74 | 1020.1 |
| 20260506162020 | 15 | 224 | 1.6 | 8.0 | 0.00 | 0.00 | 0.00 | 79 | 1020.0 |
| 20260506161023 | 15 | 14 | 3.2 | 6.4 | 0.00 | 0.00 | 0.00 | 79 | 1020.0 |
| 20260506160017 | 15 | 45 | 1.6 | 3.2 | 0.00 | 0.00 | 0.00 | 81 | 1020.1 |
| 20260506155020 | 14 | 154 | 1.6 | 4.8 | 0.00 | 0.00 | 0.00 | 81 | 1020.0 |
| 20260506154023 | 14 | 196 | 1.6 | 4.8 | 0.00 | 0.00 | 0.00 | 82 | 1020.0 |
| 20260506153017 | 13 | 60 | 0.0 | 3.2 | 0.00 | 0.00 | 0.00 | 83 | 1019.9 |
| 20260506152020 | 13 | 29 | 1.6 | 3.2 | 0.00 | 0.00 | 0.00 | 85 | 1019.9 |
| 20260506151016 | 13 | 35 | 1.6 | 4.8 | 0.00 | 0.00 | 0.00 | 85 | 1020.0 |
| 20260506150018 | 13 | 61 | 0.0 | 3.2 | 0.00 | 0.00 | 0.00 | 85 | 1020.0 |
| 20260506145021 | 13 | 71 | 1.6 | 4.8 | 0.00 | 0.00 | 0.00 | 86 | 1019.9 |
| 20260506144015 | 12 | 41 | 3.2 | 6.4 | 0.00 | 0.00 | 0.00 | 89 | 1019.8 |
| 20260506143018 | 12 | 124 | 1.6 | 4.8 | 0.00 | 0.00 | 0.00 | 90 | 1019.8 |
| 20260506142021 | 12 | 129 | 1.6 | 6.4 | 0.00 | 0.00 | 0.00 | 91 | 1019.6 |
| 20260506141035 | 12 | 83 | 1.6 | 4.8 | 0.00 | 0.00 | 0.00 | 91 | 1019.5 |
| 20260506140018 | 12 | 10 | 3.2 | 4.8 | 0.00 | 0.00 | 0.00 | 91 | 1019.5 |
| 20260506135021 | 11 | 332 | 1.6 | 4.8 | 0.00 | 0.00 | 0.00 | 91 | 1019.4 |
| 20260506134016 | 11 | 151 | 1.6 | 4.8 | 0.00 | 0.00 | 0.00 | 91 | 1019.4 |
| 20260506133018 | 11 | 270 | 1.6 | 4.8 | 0.00 | 0.00 | 0.00 | 91 | 1019.4 |
| 20260506132021 | 11 | 199 | 3.2 | 4.8 | 0.00 | 0.00 | 0.00 | 91 | 1019.4 |
| 20260506131016 | 11 | 220 | 1.6 | 4.8 | 0.00 | 0.00 | 0.00 | 91 | 1019.3 |
| 20260506130019 | 11 | 194 | 3.2 | 8.0 | 0.00 | 0.00 | 0.00 | 91 | 1019.2 |
| 20260506125022 | 11 | 256 | 1.6 | 3.2 | 0.00 | 0.00 | 0.00 | 91 | 1019.2 |
| 20260506124016 | 11 | 154 | 3.2 | 4.8 | 0.00 | 0.00 | 0.00 | 91 | 1019.1 |
| 20260506123019 | 11 | 76 | 1.6 | 4.8 | 0.00 | 0.00 | 0.00 | 91 | 1019.1 |
| 20260506122022 | 11 | 54 | 1.6 | 6.4 | 0.00 | 0.00 | 0.00 | 91 | 1019.0 |
| 20260506121017 | 11 | 39 | 1.6 | 4.8 | 0.00 | 0.00 | 0.00 | 91 | 1018.9 |
| 20260506120019 | 11 | 147 | 0.0 | 1.6 | 0.00 | 0.00 | 0.00 | 91 | 1018.8 |
| 20260506115022 | 11 | 0.0 | 0.0 | 0.00 | 0.00 | 0.00 | 91 | 1018.9 | |
| 20260506114018 | 11 | 0.0 | 0.0 | 0.00 | 0.00 | 0.00 | 91 | 1018.8 | |
| 20260506113100 | 11 | 0.0 | 0.0 | 0.00 | 0.00 | 0.00 | 91 | 1018.7 | |
| 20260506112023 | 11 | 44 | 0.0 | 1.6 | 0.00 | 0.00 | 0.00 | 91 | 1018.7 |
| 20260506111037 | 11 | 191 | 1.6 | 4.8 | 0.00 | 0.00 | 0.00 | 91 | 1018.7 |
| 20260506110021 | 11 | 190 | 3.2 | 4.8 | 0.00 | 0.00 | 0.00 | 91 | 1018.7 |
| 20260506105015 | 11 | 186 | 0.0 | 3.2 | 0.00 | 0.00 | 0.00 | 91 | 1018.6 |
| 20260506104018 | 11 | 162 | 1.6 | 4.8 | 0.00 | 0.00 | 0.00 | 91 | 1018.5 |
| 20260506103021 | 11 | 146 | 1.6 | 3.2 | 0.00 | 0.00 | 0.00 | 91 | 1018.4 |
| 20260506102035 | 11 | 148 | 0.0 | 3.2 | 0.00 | 0.00 | 0.00 | 91 | 1018.4 |
| 20260506101017 | 11 | 148 | 1.6 | 3.2 | 0.00 | 0.00 | 0.00 | 91 | 1018.3 |
| 20260506100019 | 11 | 173 | 3.2 | 4.8 | 0.00 | 0.00 | 0.00 | 91 | 1018.3 |
| 20260506095022 | 11 | 155 | 1.6 | 3.2 | 0.00 | 0.00 | 0.00 | 91 | 1018.3 |
| 20260506094037 | 11 | 159 | 1.6 | 3.2 | 0.00 | 0.00 | 0.00 | 91 | 1018.3 |
| 20260506093040 | 11 | 153 | 1.6 | 3.2 | 0.00 | 0.00 | 0.00 | 91 | 1018.3 |
| 20260506092015 | 11 | 153 | 1.6 | 3.2 | 0.00 | 0.00 | 0.00 | 91 | 1018.4 |
| 20260506091038 | 11 | 171 | 3.2 | 4.8 | 0.00 | 0.00 | 0.00 | 91 | 1018.3 |
| 20260506090041 | 11 | 166 | 3.2 | 6.4 | 0.00 | 0.00 | 0.00 | 91 | 1018.5 |
| 20260506085016 | 12 | 150 | 1.6 | 3.2 | 0.00 | 0.00 | 0.00 | 91 | 1018.5 |
| 20260506084019 | 12 | 162 | 1.6 | 3.2 | 0.00 | 0.00 | 0.00 | 91 | 1018.5 |
| 20260506083022 | 12 | 171 | 0.0 | 1.6 | 0.00 | 0.00 | 0.00 | 90 | 1018.4 |
| 20260506082017 | 12 | 0.0 | 1.6 | 0.00 | 0.00 | 0.00 | 90 | 1018.4 | |
| 20260506081021 | 12 | 184 | 0.0 | 3.2 | 0.00 | 0.00 | 0.00 | 90 | 1018.4 |
| 20260506073017 | 12 | 154 | 1.6 | 3.2 | 0.00 | 0.03 | 0.00 | 91 | 1018.0 |
| 20260506072020 | 11 | 66 | 0.0 | 3.2 | 0.00 | 0.03 | 0.00 | 91 | 1018.0 |
| 20260506071015 | 11 | 111 | 0.0 | 3.2 | 0.00 | 0.03 | 0.00 | 91 | 1017.9 |
| 20260506062023 | 12 | 196 | 1.6 | 4.8 | 0.00 | 0.30 | 0.08 | 91 | 1017.7 |
| 20260506061018 | 12 | 184 | 1.6 | 4.8 | 0.00 | 0.36 | 0.08 | 90 | 1017.6 |
| 20260506051021 | 12 | 156 | 3.2 | 6.4 | 0.00 | 0.43 | 0.08 | 90 | 1017.3 |
| 20260506045019 | 12 | 193 | 3.2 | 8.0 | 0.00 | 0.46 | 0.08 | 89 | 1017.0 |
| 20260506044022 | 12 | 211 | 3.2 | 6.4 | 0.00 | 0.46 | 0.08 | 89 | 1017.0 |
| 20260506043017 | 12 | 188 | 3.2 | 6.4 | 0.00 | 0.48 | 0.08 | 89 | 1016.9 |
| 20260506042020 | 12 | 153 | 1.6 | 3.2 | 0.00 | 0.48 | 0.08 | 89 | 1016.7 |
| 20260506041022 | 12 | 184 | 3.2 | 8.0 | 0.00 | 0.48 | 0.08 | 89 | 1016.5 |
| 20260506040017 | 12 | 190 | 3.2 | 6.4 | 0.00 | 0.51 | 0.08 | 89 | 1016.4 |
| 20260506035041 | 12 | 199 | 1.6 | 4.8 | 0.00 | 0.56 | 0.08 | 90 | 1016.5 |
| 20260506034015 | 12 | 189 | 3.2 | 4.8 | 0.00 | 0.56 | 0.08 | 90 | 1016.4 |
| 20260506033019 | 12 | 198 | 1.6 | 4.8 | 0.00 | 0.56 | 0.08 | 89 | 1016.1 |
| 20260506032022 | 12 | 196 | 3.2 | 8.0 | 0.00 | 0.61 | 0.08 | 89 | 1015.8 |
| 20260506031017 | 12 | 199 | 4.8 | 8.0 | 0.00 | 0.61 | 0.08 | 89 | 1015.6 |
| 20260506030040 | 12 | 206 | 6.4 | 9.7 | 0.00 | 0.64 | 0.08 | 88 | 1015.7 |
| 20260506025023 | 12 | 201 | 6.4 | 9.7 | 0.00 | 0.66 | 0.08 | 88 | 1015.7 |
| 20260506024018 | 12 | 212 | 4.8 | 12.9 | 0.00 | 0.71 | 0.08 | 87 | 1015.5 |
| 20260506023021 | 13 | 203 | 6.4 | 12.9 | 0.00 | 0.74 | 0.08 | 87 | 1015.4 |
| 20260506022016 | 13 | 193 | 4.8 | 9.7 | 0.00 | 0.76 | 0.08 | 86 | 1015.5 |
| 20260506021019 | 13 | 203 | 9.7 | 16.1 | 0.00 | 0.79 | 0.08 | 86 | 1015.3 |
| 20260506020042 | 13 | 207 | 8.0 | 14.5 | 0.00 | 0.81 | 0.08 | 86 | 1015.2 |
| 20260506015017 | 13 | 203 | 9.7 | 20.9 | 0.00 | 0.81 | 0.08 | 85 | 1015.0 |
| 20260506014021 | 13 | 202 | 6.4 | 17.7 | 0.00 | 0.84 | 0.08 | 83 | 1015.1 |
| 20260506013015 | 13 | 86 | 1.6 | 6.4 | 0.00 | 0.91 | 0.08 | 81 | 1015.0 |
| 20260506012018 | 14 | 202 | 4.8 | 16.1 | 0.00 | 0.94 | 0.08 | 80 | 1015.0 |
| 20260506011042 | 14 | 191 | 6.4 | 17.7 | 0.00 | 0.99 | 0.08 | 79 | 1015.0 |
| 20260506010017 | 15 | 171 | 1.6 | 4.8 | 0.00 | 1.02 | 0.08 | 78 | 1015.0 |
| 20260506005020 | 15 | 116 | 1.6 | 6.4 | 0.00 | 1.04 | 0.08 | 78 | 1015.0 |
| 20260506004015 | 15 | 34 | 1.6 | 4.8 | 0.00 | 1.07 | 0.08 | 79 | 1014.9 |
| 20260506003018 | 15 | 200 | 4.8 | 11.3 | 0.00 | 1.09 | 0.08 | 79 | 1014.7 |
| 20260506002022 | 15 | 197 | 9.7 | 24.1 | 0.00 | 1.12 | 0.08 | 77 | 1014.7 |
| 20260506001017 | 15 | 200 | 8.0 | 17.7 | 0.00 | 1.17 | 0.08 | 76 | 1014.6 |
| 20260506000020 | 16 | 189 | 4.8 | 22.5 | 0.00 | 1.19 | 0.08 | 74 | 1014.5 |
| 20260505235043 | 16 | 48 | 1.6 | 6.4 | 0.00 | 1.22 | 0.08 | 74 | 1014.6 |
| 20260505234018 | 16 | 184 | 3.2 | 9.7 | 0.00 | 1.24 | 0.08 | 76 | 1014.6 |
| 20260505233021 | 16 | 199 | 6.4 | 16.1 | 0.00 | 1.27 | 0.08 | 76 | 1014.7 |
| 20260505232036 | 16 | 199 | 6.4 | 17.7 | 0.00 | 1.27 | 0.08 | 74 | 1014.6 |
| 20260505231019 | 16 | 199 | 9.7 | 20.9 | 0.00 | 1.32 | 0.08 | 75 | 1014.5 |
| 20260505230022 | 16 | 194 | 6.4 | 16.1 | 0.00 | 1.37 | 0.08 | 75 | 1014.6 |
| 20260505225016 | 16 | 200 | 8.0 | 17.7 | 0.00 | 1.37 | 0.08 | 75 | 1014.6 |
| 20260505224040 | 16 | 191 | 6.4 | 16.1 | 0.00 | 1.42 | 0.08 | 74 | 1014.6 |
| 20260505223023 | 16 | 198 | 9.7 | 20.9 | 0.00 | 1.42 | 0.08 | 74 | 1014.7 |
| 20260505222037 | 17 | 179 | 6.4 | 14.5 | 0.00 | 1.42 | 0.08 | 72 | 1014.7 |
| 20260505221020 | 17 | 185 | 4.8 | 17.7 | 0.00 | 1.42 | 0.08 | 73 | 1014.7 |
| 20260505220036 | 17 | 189 | 3.2 | 9.7 | 0.00 | 1.42 | 0.08 | 74 | 1014.7 |
| 20260505215019 | 17 | 204 | 4.8 | 12.9 | 0.00 | 1.42 | 0.08 | 74 | 1014.8 |
| 20260505214041 | 17 | 181 | 3.2 | 9.7 | 0.00 | 1.42 | 0.08 | 74 | 1014.9 |
| 20260505213016 | 16 | 201 | 3.2 | 11.3 | 0.00 | 1.42 | 0.08 | 76 | 1015.0 |
| 20260505212019 | 17 | 197 | 3.2 | 14.5 | 0.00 | 1.42 | 0.08 | 75 | 1015.0 |